createdAt,value
2022-10-20T00:00:15.381Z,10.3
2022-10-20T00:01:30.430Z,10.2
2022-10-20T00:02:44.681Z,10.3
2022-10-20T00:05:45.249Z,10.1
2022-10-20T00:06:38.060Z,10.1
2022-10-20T00:07:43.609Z,10.1
2022-10-20T00:08:40.280Z,10.1
2022-10-20T00:09:38.094Z,10.3
2022-10-20T00:10:38.271Z,10.2
2022-10-20T00:11:38.271Z,10.2
2022-10-20T00:12:42.503Z,10.2
2022-10-20T00:13:38.284Z,10.2
2022-10-20T00:14:38.390Z,10.2
2022-10-20T00:15:42.126Z,10.2
2022-10-20T00:17:02.713Z,10.2
2022-10-20T00:17:44.955Z,10.2
2022-10-20T00:18:39.059Z,10.2
2022-10-20T00:19:41.668Z,10.2
2022-10-20T00:21:00.780Z,10.2
2022-10-20T00:21:38.757Z,10.1
2022-10-20T00:22:38.934Z,10.1
2022-10-20T00:23:38.863Z,10.1
2022-10-20T00:25:42.400Z,10.1
2022-10-20T00:26:44.013Z,10.1
2022-10-20T00:27:39.082Z,10.1
2022-10-20T00:28:39.340Z,10.1
2022-10-20T00:29:39.164Z,10.1
2022-10-20T00:31:51.775Z,10.1
2022-10-20T00:32:57.866Z,10.1
2022-10-20T00:33:39.410Z,10.1
2022-10-20T00:34:57.686Z,10.1
2022-10-20T00:35:39.608Z,10
2022-10-20T00:36:40.059Z,10.1
2022-10-20T00:37:39.683Z,10
2022-10-20T00:38:39.709Z,10
2022-10-20T00:39:39.970Z,10
2022-10-20T00:40:40.031Z,10
2022-10-20T00:41:40.010Z,10.1
2022-10-20T00:42:39.911Z,10
2022-10-20T00:43:39.971Z,10
2022-10-20T00:44:40.013Z,10
2022-10-20T00:45:40.056Z,10.1
2022-10-20T00:46:40.132Z,10
2022-10-20T00:47:40.271Z,10
2022-10-20T00:48:40.289Z,10
2022-10-20T00:49:40.302Z,10
2022-10-20T00:50:40.387Z,9.9
2022-10-20T00:51:40.438Z,10
2022-10-20T00:52:40.493Z,10
2022-10-20T00:53:40.545Z,9.9
2022-10-20T00:54:40.588Z,9.9
2022-10-20T00:55:40.633Z,9.9
2022-10-20T00:56:40.706Z,9.9
2022-10-20T00:57:40.771Z,9.9
2022-10-20T00:58:40.802Z,9.9
2022-10-20T00:59:40.856Z,9.9
2022-10-20T01:00:40.889Z,9.9
2022-10-20T01:01:41.039Z,10
2022-10-20T01:02:41.058Z,10.1
2022-10-20T01:03:41.074Z,10.1
2022-10-20T01:04:41.127Z,10.1
2022-10-20T01:05:41.169Z,10.1
2022-10-20T01:06:41.232Z,10.1
2022-10-20T01:07:41.265Z,10
2022-10-20T01:08:46.531Z,10
2022-10-20T01:09:41.367Z,10
2022-10-20T01:10:41.457Z,10
2022-10-20T01:11:41.515Z,10
2022-10-20T01:12:41.550Z,10
2022-10-20T01:13:41.672Z,10.1
2022-10-20T01:14:41.680Z,10.1
2022-10-20T01:15:41.728Z,10.1
2022-10-20T01:16:41.783Z,10.1
2022-10-20T01:17:41.855Z,10.1
2022-10-20T01:18:41.922Z,10.1
2022-10-20T01:19:41.962Z,10
2022-10-20T01:20:42.010Z,10.1
2022-10-20T01:21:42.093Z,10.1
2022-10-20T01:22:42.127Z,10.1
2022-10-20T01:23:42.185Z,10.1
2022-10-20T01:24:42.222Z,10.1
2022-10-20T01:25:42.273Z,10
2022-10-20T01:26:42.364Z,10.1
2022-10-20T01:27:42.395Z,10.1
2022-10-20T01:28:42.451Z,10.1
2022-10-20T01:29:42.507Z,10.1
2022-10-20T01:30:42.529Z,10.1
2022-10-20T01:31:42.579Z,10
2022-10-20T01:32:42.655Z,10
2022-10-20T01:33:42.726Z,9.9
2022-10-20T01:34:42.779Z,10
2022-10-20T01:35:42.818Z,10
2022-10-20T01:36:42.863Z,10
2022-10-20T01:37:50.284Z,10
2022-10-20T01:38:43.004Z,10
2022-10-20T01:39:43.040Z,10.1
2022-10-20T01:40:43.084Z,10
2022-10-20T01:41:43.143Z,10.1
2022-10-20T01:42:43.184Z,10.2
2022-10-20T01:43:43.273Z,10.2
2022-10-20T01:44:43.331Z,10.2
2022-10-20T01:45:43.459Z,10.3
2022-10-20T01:46:43.464Z,10.2
2022-10-20T01:47:43.495Z,10.2
2022-10-20T01:48:43.548Z,10.2
2022-10-20T01:49:43.663Z,10.3
2022-10-20T01:50:43.763Z,10.2
2022-10-20T01:51:43.952Z,10.2
2022-10-20T01:52:44.036Z,10.3
2022-10-20T01:53:44.109Z,10.3
2022-10-20T01:54:44.179Z,10.3
2022-10-20T01:55:44.232Z,10.3
2022-10-20T01:56:44.317Z,10.3
2022-10-20T01:57:44.341Z,10.3
2022-10-20T01:58:44.380Z,10.2
2022-10-20T01:59:44.468Z,10.3
2022-10-20T02:00:44.549Z,10.2
2022-10-20T02:01:44.611Z,10.2
2022-10-20T02:02:44.626Z,10.2
2022-10-20T02:03:44.698Z,10.3
2022-10-20T02:04:44.725Z,10.3
2022-10-20T02:05:44.776Z,10.3
2022-10-20T02:06:44.845Z,10.3
2022-10-20T02:07:44.888Z,10.3
2022-10-20T02:08:45.128Z,10.3
2022-10-20T02:09:45.049Z,10.3
2022-10-20T02:10:45.083Z,10.3
2022-10-20T02:11:45.143Z,10.3
2022-10-20T02:12:45.200Z,10.3
2022-10-20T02:13:45.274Z,10.4
2022-10-20T02:14:45.314Z,10.4
2022-10-20T02:15:45.346Z,10.4
2022-10-20T02:16:45.381Z,10.4
2022-10-20T02:17:45.463Z,10.4
2022-10-20T02:18:45.569Z,10.4
2022-10-20T02:19:45.550Z,10.4
2022-10-20T02:20:45.593Z,10.4
2022-10-20T02:21:45.685Z,10.4
2022-10-20T02:22:45.738Z,10.3
2022-10-20T02:23:45.785Z,10.4
2022-10-20T02:24:45.817Z,10.4
2022-10-20T02:25:45.908Z,10.3
2022-10-20T02:26:45.988Z,10.4
2022-10-20T02:27:46.027Z,10.4
2022-10-20T02:28:46.092Z,10.3
2022-10-20T02:29:46.198Z,10.4
2022-10-20T02:30:46.353Z,10.3
2022-10-20T02:31:46.359Z,10.3
2022-10-20T02:32:46.467Z,10.3
2022-10-20T02:33:46.661Z,10.3
2022-10-20T02:34:46.632Z,10.3
2022-10-20T02:35:46.742Z,10.3
2022-10-20T02:36:46.746Z,10.4
2022-10-20T02:37:46.773Z,10.3
2022-10-20T02:38:46.899Z,10.3
2022-10-20T02:39:46.987Z,10.3
2022-10-20T02:40:46.990Z,10.3
2022-10-20T02:41:47.027Z,10.3
2022-10-20T02:42:47.002Z,10.3
2022-10-20T02:43:47.037Z,10.4
2022-10-20T02:44:47.081Z,10.3
2022-10-20T02:45:52.157Z,10.3
2022-10-20T02:46:47.214Z,10.3
2022-10-20T02:47:47.296Z,10.3
2022-10-20T02:48:47.338Z,10.4
2022-10-20T02:49:47.471Z,10.4
2022-10-20T02:50:47.468Z,10.5
2022-10-20T02:51:47.489Z,10.5
2022-10-20T02:52:47.517Z,10.4
2022-10-20T02:53:47.591Z,10.4
2022-10-20T02:54:47.656Z,10.4
2022-10-20T02:55:52.710Z,10.4
2022-10-20T02:56:47.769Z,10.4
2022-10-20T02:57:47.829Z,10.4
2022-10-20T02:58:47.906Z,10.4
2022-10-20T02:59:47.912Z,10.4
2022-10-20T03:00:48.011Z,10.4
2022-10-20T03:01:48.244Z,10.4
2022-10-20T03:02:48.092Z,10.4
2022-10-20T03:03:48.180Z,10.3
2022-10-20T03:04:48.213Z,10.3
2022-10-20T03:05:48.315Z,10.3
2022-10-20T03:06:48.336Z,10.4
2022-10-20T03:07:48.363Z,10.4
2022-10-20T03:08:48.501Z,10.4
2022-10-20T03:09:48.586Z,10.4
2022-10-20T03:10:48.622Z,10.5
2022-10-20T03:11:48.703Z,10.4
2022-10-20T03:12:48.740Z,10.4
2022-10-20T03:13:48.803Z,10.4
2022-10-20T03:14:48.855Z,10.4
2022-10-20T03:15:48.894Z,10.4
2022-10-20T03:16:48.952Z,10.4
2022-10-20T03:17:49.011Z,10.4
2022-10-20T03:18:49.106Z,10.4
2022-10-20T03:19:49.146Z,10.4
2022-10-20T03:20:49.201Z,10.4
2022-10-20T03:21:49.293Z,10.4
2022-10-20T03:22:49.327Z,10.4
2022-10-20T03:23:49.412Z,10.3
2022-10-20T03:24:49.460Z,10.4
2022-10-20T03:25:49.516Z,10.3
2022-10-20T03:26:49.570Z,10.3
2022-10-20T03:27:49.643Z,10.2
2022-10-20T03:28:49.695Z,10.3
2022-10-20T03:29:49.744Z,10.4
2022-10-20T03:30:52.604Z,10.4
2022-10-20T03:31:51.707Z,10.3
2022-10-20T03:32:49.944Z,10.3
2022-10-20T03:35:06.292Z,10.4
2022-10-20T03:35:50.093Z,10.4
2022-10-20T03:36:50.147Z,10.3
2022-10-20T03:37:50.248Z,10.4
2022-10-20T03:38:50.246Z,10.4
2022-10-20T03:39:50.322Z,10.4
2022-10-20T03:40:50.462Z,10.4
2022-10-20T03:41:50.474Z,10.4
2022-10-20T03:42:50.489Z,10.4
2022-10-20T03:43:50.568Z,10.3
2022-10-20T03:44:50.661Z,10.3
2022-10-20T03:45:50.717Z,10.3
2022-10-20T03:46:50.743Z,10.4
2022-10-20T03:47:50.796Z,10.4
2022-10-20T03:48:50.890Z,10.5
2022-10-20T03:49:50.911Z,10.5
2022-10-20T03:50:51.008Z,10.4
2022-10-20T03:51:51.074Z,10.4
2022-10-20T03:52:51.105Z,10.4
2022-10-20T03:53:51.181Z,10.3
2022-10-20T03:54:51.202Z,10.4
2022-10-20T03:55:51.518Z,10.4
2022-10-20T03:56:51.303Z,10.4
2022-10-20T03:57:51.403Z,10.4
2022-10-20T03:58:51.471Z,10.4
2022-10-20T03:59:51.488Z,10.5
2022-10-20T04:00:51.571Z,10.5
2022-10-20T04:01:51.645Z,10.4
2022-10-20T04:02:51.673Z,10.4
2022-10-20T04:03:51.718Z,10.4
2022-10-20T04:04:52.286Z,10.3
2022-10-20T04:05:51.810Z,10.4
2022-10-20T04:06:51.872Z,10.4
2022-10-20T04:07:51.885Z,10.4
2022-10-20T04:08:52.031Z,10.4
2022-10-20T04:09:52.037Z,10.4
2022-10-20T04:10:52.092Z,10.4
2022-10-20T04:11:52.191Z,10.4
2022-10-20T04:12:52.189Z,10.3
2022-10-20T04:13:52.256Z,10.4
2022-10-20T04:14:53.578Z,10.4
2022-10-20T04:15:52.422Z,10.5
2022-10-20T04:16:52.998Z,10.4
2022-10-20T04:17:52.474Z,10.4
2022-10-20T04:18:52.896Z,10.4
2022-10-20T04:19:52.582Z,10.4
2022-10-20T04:20:52.655Z,10.4
2022-10-20T04:21:52.696Z,10.4
2022-10-20T04:22:52.801Z,10.5
2022-10-20T04:23:52.817Z,10.5
2022-10-20T04:24:54.714Z,10.4
2022-10-20T04:25:52.959Z,10.4
2022-10-20T04:26:53.012Z,10.4
2022-10-20T04:27:53.079Z,10.5
2022-10-20T04:28:53.119Z,10.4
2022-10-20T04:29:53.150Z,10.4
2022-10-20T04:31:34.815Z,10.4
2022-10-20T04:31:53.247Z,10.4
2022-10-20T04:32:53.322Z,10.4
2022-10-20T04:33:53.352Z,10.4
2022-10-20T04:34:53.423Z,10.4
2022-10-20T04:35:53.549Z,10.4
2022-10-20T04:36:53.574Z,10.4
2022-10-20T04:37:53.607Z,10.4
2022-10-20T04:38:53.658Z,10.4
2022-10-20T04:39:53.698Z,10.4
2022-10-20T04:40:54.831Z,10.4
2022-10-20T04:41:53.851Z,10.4
2022-10-20T04:42:53.859Z,10.4
2022-10-20T04:43:53.904Z,10.4
2022-10-20T04:44:54.046Z,10.4
2022-10-20T04:45:54.021Z,10.4
2022-10-20T04:46:54.134Z,10.4
2022-10-20T04:47:54.135Z,10.4
2022-10-20T04:48:54.171Z,10.4
2022-10-20T04:49:54.261Z,10.4
2022-10-20T04:50:54.296Z,10.4
2022-10-20T04:51:57.465Z,10.4
2022-10-20T04:52:54.426Z,10.4
2022-10-20T04:53:54.523Z,10.4
2022-10-20T04:54:54.554Z,10.4
2022-10-20T04:55:59.599Z,10.4
2022-10-20T04:56:54.664Z,10.5
2022-10-20T04:57:54.725Z,10.5
2022-10-20T04:58:55.688Z,10.5
2022-10-20T04:59:54.792Z,10.5
2022-10-20T05:00:54.861Z,10.5
2022-10-20T05:01:55.099Z,10.5
2022-10-20T05:02:54.968Z,10.5
2022-10-20T05:03:55.050Z,10.4
2022-10-20T05:04:55.072Z,10.5
2022-10-20T05:05:55.124Z,10.5
2022-10-20T05:06:55.209Z,10.5
2022-10-20T05:07:55.758Z,10.5
2022-10-20T05:08:55.343Z,10.5
2022-10-20T05:09:55.626Z,10.5
2022-10-20T05:10:55.428Z,10.5
2022-10-20T05:11:55.653Z,10.4
2022-10-20T05:12:55.525Z,10.5
2022-10-20T05:13:55.614Z,10.5
2022-10-20T05:14:55.642Z,10.5
2022-10-20T05:15:55.662Z,10.4
2022-10-20T05:16:55.794Z,10.4
2022-10-20T05:17:55.832Z,10.5
2022-10-20T05:18:55.871Z,10.5
2022-10-20T05:19:55.937Z,10.6
2022-10-20T05:21:11.439Z,10.6
2022-10-20T05:21:56.041Z,10.5
2022-10-20T05:22:56.082Z,10.5
2022-10-20T05:23:56.140Z,10.5
2022-10-20T05:24:58.396Z,10.6
2022-10-20T05:25:56.317Z,10.5
2022-10-20T05:26:56.460Z,10.5
2022-10-20T05:27:56.461Z,10.5
2022-10-20T05:28:56.515Z,10.5
2022-10-20T05:29:56.575Z,10.4
2022-10-20T05:30:57.845Z,10.5
2022-10-20T05:31:56.772Z,10.5
2022-10-20T05:32:56.734Z,10.5
2022-10-20T05:33:56.774Z,10.4
2022-10-20T05:34:56.838Z,10.4
2022-10-20T05:35:56.855Z,10.4
2022-10-20T05:36:56.948Z,10.5
2022-10-20T05:37:56.999Z,10.5
2022-10-20T05:38:58.125Z,10.4
2022-10-20T05:39:57.093Z,10.4
2022-10-20T05:40:57.183Z,10.4
2022-10-20T05:41:57.220Z,10.3
2022-10-20T05:42:57.318Z,10.3
2022-10-20T05:43:57.325Z,10.4
2022-10-20T05:44:57.391Z,10.4
2022-10-20T05:45:57.477Z,10.5
2022-10-20T05:46:57.525Z,10.4
2022-10-20T05:47:57.536Z,10.4
2022-10-20T05:48:57.604Z,10.4
2022-10-20T05:49:57.645Z,10.4
2022-10-20T05:50:57.696Z,10.4
2022-10-20T05:51:57.762Z,10.4
2022-10-20T05:52:57.843Z,10.4
2022-10-20T05:53:57.880Z,10.3
2022-10-20T05:54:57.988Z,10.3
2022-10-20T05:55:58.014Z,10.3
2022-10-20T05:56:58.060Z,10.4
2022-10-20T05:57:58.126Z,10.4
2022-10-20T05:58:58.240Z,10.4
2022-10-20T05:59:58.365Z,10.3
2022-10-20T06:00:58.393Z,10.3
2022-10-20T06:01:58.494Z,10.3
2022-10-20T06:02:58.491Z,10.3
2022-10-20T06:03:58.569Z,10.3
2022-10-20T06:04:58.615Z,10.3
2022-10-20T06:05:58.675Z,10.3
2022-10-20T06:06:58.739Z,10.3
2022-10-20T06:07:58.744Z,10.3
2022-10-20T06:08:58.912Z,10.3
2022-10-20T06:09:58.908Z,10.3
2022-10-20T06:10:58.916Z,10.3
2022-10-20T06:11:59.076Z,10.3
2022-10-20T06:12:59.071Z,10.3
2022-10-20T06:13:59.137Z,10.3
2022-10-20T06:14:59.188Z,10.3
2022-10-20T06:15:59.255Z,10.3
2022-10-20T06:16:59.328Z,10.3
2022-10-20T06:17:59.419Z,10.3
2022-10-20T06:18:59.419Z,10.3
2022-10-20T06:19:59.502Z,10.4
2022-10-20T06:20:59.593Z,10.4
2022-10-20T06:22:02.420Z,10.3
2022-10-20T06:22:59.663Z,10.3
2022-10-20T06:23:59.688Z,10.3
2022-10-20T06:24:59.782Z,10.3
2022-10-20T06:25:59.831Z,10.4
2022-10-20T06:26:59.925Z,10.4
2022-10-20T06:28:00.000Z,10.4
2022-10-20T06:29:04.175Z,10.4
2022-10-20T06:30:00.099Z,10.4
2022-10-20T06:31:00.179Z,10.4
2022-10-20T06:32:00.239Z,10.4
2022-10-20T06:33:00.278Z,10.4
2022-10-20T06:34:00.285Z,10.4
2022-10-20T06:35:00.338Z,10.5
2022-10-20T06:36:00.394Z,10.4
2022-10-20T06:37:00.471Z,10.4
2022-10-20T06:38:05.752Z,10.4
2022-10-20T06:39:05.576Z,10.4
2022-10-20T06:40:00.615Z,10.4
2022-10-20T06:41:00.687Z,10.4
2022-10-20T06:42:00.792Z,10.4
2022-10-20T06:43:00.799Z,10.4
2022-10-20T06:44:00.862Z,10.4
2022-10-20T06:45:00.919Z,10.4
2022-10-20T06:46:00.990Z,10.5
2022-10-20T06:47:01.078Z,10.5
2022-10-20T06:48:01.133Z,10.5
2022-10-20T06:49:01.168Z,10.4
2022-10-20T06:50:01.238Z,10.4
2022-10-20T06:51:01.276Z,10.5
2022-10-20T06:52:01.443Z,10.5
2022-10-20T06:53:01.436Z,10.5
2022-10-20T06:54:01.499Z,10.5
2022-10-20T06:55:06.529Z,10.5
2022-10-20T06:56:01.607Z,10.4
2022-10-20T06:57:01.698Z,10.5
2022-10-20T06:58:01.700Z,10.5
2022-10-20T06:59:01.734Z,10.5
2022-10-20T07:00:02.839Z,10.5
2022-10-20T07:01:02.579Z,10.5
2022-10-20T07:02:02.042Z,10.5
2022-10-20T07:03:06.951Z,10.5
2022-10-20T07:04:02.015Z,10.5
2022-10-20T07:05:02.095Z,10.4
2022-10-20T07:06:07.134Z,10.4
2022-10-20T07:07:02.212Z,10.4
2022-10-20T07:08:02.234Z,10.5
2022-10-20T07:09:02.263Z,10.5
2022-10-20T07:10:02.321Z,10.6
2022-10-20T07:11:02.428Z,10.6
2022-10-20T07:12:02.550Z,10.6
2022-10-20T07:13:02.592Z,10.6
2022-10-20T07:14:02.723Z,10.6
2022-10-20T07:15:02.808Z,10.6
2022-10-20T07:16:02.903Z,10.6
2022-10-20T07:17:02.962Z,10.6
2022-10-20T07:18:02.986Z,10.6
2022-10-20T07:19:03.063Z,10.6
2022-10-20T07:20:03.119Z,10.6
2022-10-20T07:21:04.185Z,10.7
2022-10-20T07:22:03.290Z,10.7
2022-10-20T07:23:03.227Z,10.7
2022-10-20T07:24:03.333Z,10.7
2022-10-20T07:25:03.361Z,10.7
2022-10-20T07:26:03.397Z,10.7
2022-10-20T07:27:03.486Z,10.6
2022-10-20T07:28:03.822Z,10.7
2022-10-20T07:29:03.626Z,10.7
2022-10-20T07:30:04.731Z,10.6
2022-10-20T07:31:03.702Z,10.6
2022-10-20T07:32:03.735Z,10.7
2022-10-20T07:33:03.774Z,10.6
2022-10-20T07:34:20.148Z,10.6
2022-10-20T07:35:04.512Z,10.6
2022-10-20T07:36:05.069Z,10.6
2022-10-20T07:37:04.054Z,10.6
2022-10-20T07:38:04.071Z,10.7
2022-10-20T07:39:04.103Z,10.7
2022-10-20T07:40:04.171Z,10.7
2022-10-20T07:41:04.232Z,10.7
2022-10-20T07:42:04.309Z,10.7
2022-10-20T07:43:04.334Z,10.7
2022-10-20T07:44:04.387Z,10.7
2022-10-20T07:45:04.524Z,10.7
2022-10-20T07:46:04.507Z,10.8
2022-10-20T07:47:04.570Z,10.8
2022-10-20T07:48:04.596Z,10.8
2022-10-20T07:49:39.125Z,10.8
2022-10-20T07:50:04.734Z,10.8
2022-10-20T07:51:05.877Z,10.8
2022-10-20T07:52:04.885Z,10.8
2022-10-20T07:53:04.904Z,10.9
2022-10-20T07:54:06.341Z,10.9
2022-10-20T07:55:17.536Z,10.9
2022-10-20T07:56:05.055Z,10.9
2022-10-20T07:57:05.157Z,11
2022-10-20T07:58:05.140Z,11
2022-10-20T07:59:05.204Z,11
2022-10-20T08:00:06.272Z,11
2022-10-20T08:01:05.349Z,11.1
2022-10-20T08:02:05.443Z,11.1
2022-10-20T08:03:05.442Z,11.1
2022-10-20T08:04:05.483Z,11.1
2022-10-20T08:05:05.528Z,11.2
2022-10-20T08:06:05.564Z,11.2
2022-10-20T08:07:05.655Z,11.2
2022-10-20T08:08:05.674Z,11.2
2022-10-20T08:09:05.770Z,11.2
2022-10-20T08:10:05.853Z,11.2
2022-10-20T08:11:05.878Z,11.2
2022-10-20T08:12:05.983Z,11.3
2022-10-20T08:13:05.970Z,11.3
2022-10-20T08:14:06.024Z,11.3
2022-10-20T08:15:06.075Z,11.3
2022-10-20T08:16:06.125Z,11.3
2022-10-20T08:17:06.191Z,11.3
2022-10-20T08:18:06.269Z,11.3
2022-10-20T08:19:08.340Z,11.3
2022-10-20T08:20:09.297Z,11.3
2022-10-20T08:21:06.426Z,11.3
2022-10-20T08:22:06.588Z,11.3
2022-10-20T08:23:06.724Z,11.4
2022-10-20T08:24:06.716Z,11.4
2022-10-20T08:25:06.783Z,11.4
2022-10-20T08:26:10.582Z,11.4
2022-10-20T08:27:06.874Z,11.4
2022-10-20T08:28:06.923Z,11.4
2022-10-20T08:29:07.017Z,11.4
2022-10-20T08:30:22.731Z,11.4
2022-10-20T08:31:07.094Z,11.5
2022-10-20T08:32:07.142Z,11.5
2022-10-20T08:33:07.196Z,11.5
2022-10-20T08:34:07.228Z,11.5
2022-10-20T08:35:07.356Z,11.5
2022-10-20T08:36:07.859Z,11.5
2022-10-20T08:37:07.463Z,11.6
2022-10-20T08:38:07.678Z,11.6
2022-10-20T08:39:07.548Z,11.6
2022-10-20T08:40:07.596Z,11.6
2022-10-20T08:41:07.640Z,11.6
2022-10-20T08:42:09.146Z,11.6
2022-10-20T08:43:07.755Z,11.6
2022-10-20T08:44:07.813Z,11.6
2022-10-20T08:45:07.896Z,11.6
2022-10-20T08:46:09.693Z,11.6
2022-10-20T08:48:38.470Z,11.6
2022-10-20T08:49:08.073Z,11.6
2022-10-20T08:50:08.386Z,11.6
2022-10-20T08:51:08.198Z,11.6
2022-10-20T08:52:08.427Z,11.6
2022-10-20T08:53:08.319Z,11.5
2022-10-20T08:54:08.487Z,11.5
2022-10-20T08:55:08.639Z,11.5
2022-10-20T08:56:08.563Z,11.5
2022-10-20T08:57:08.621Z,11.5
2022-10-20T08:58:08.721Z,11.5
2022-10-20T08:59:08.725Z,11.5
2022-10-20T09:00:09.118Z,11.5
2022-10-20T09:01:08.788Z,11.5
2022-10-20T09:02:08.981Z,11.5
2022-10-20T09:03:08.914Z,11.5
2022-10-20T09:04:08.974Z,11.5
2022-10-20T09:05:09.043Z,11.5
2022-10-20T09:06:09.095Z,11.5
2022-10-20T09:07:09.223Z,11.5
2022-10-20T09:08:09.210Z,11.4
2022-10-20T09:09:09.307Z,11.4
2022-10-20T09:10:09.340Z,11.4
2022-10-20T09:11:09.420Z,11.4
2022-10-20T09:12:09.475Z,11.4
2022-10-20T09:13:09.513Z,11.4
2022-10-20T09:14:09.602Z,11.4
2022-10-20T09:15:09.597Z,11.4
2022-10-20T09:16:14.887Z,11.4
2022-10-20T09:17:11.537Z,11.4
2022-10-20T09:18:14.804Z,11.4
2022-10-20T09:19:09.833Z,11.4
2022-10-20T09:20:09.878Z,11.3
2022-10-20T09:21:09.940Z,11.3
2022-10-20T09:22:09.985Z,11.3
2022-10-20T09:23:22.216Z,11.3
2022-10-20T09:24:10.116Z,11.3
2022-10-20T09:25:10.188Z,11.3
2022-10-20T09:26:15.897Z,11.3
2022-10-20T09:27:10.295Z,11.3
2022-10-20T09:28:10.321Z,11.3
2022-10-20T09:29:14.557Z,11.3
2022-10-20T09:30:10.472Z,11.3
2022-10-20T09:31:10.516Z,11.3
2022-10-20T09:32:34.193Z,11.3
2022-10-20T09:33:10.566Z,11.3
2022-10-20T09:34:15.653Z,11.3
2022-10-20T09:35:10.681Z,11.3
2022-10-20T09:36:10.749Z,11.3
2022-10-20T09:37:10.767Z,11.3
2022-10-20T09:38:10.857Z,11.3
2022-10-20T09:39:10.850Z,11.3
2022-10-20T09:40:10.950Z,11.3
2022-10-20T09:41:10.999Z,11.3
2022-10-20T09:42:11.090Z,11.4
2022-10-20T09:43:11.148Z,11.3
2022-10-20T09:44:11.185Z,11.3
2022-10-20T09:45:11.236Z,11.4
2022-10-20T09:46:11.339Z,11.4
2022-10-20T09:47:11.328Z,11.4
2022-10-20T09:48:11.369Z,11.4
2022-10-20T09:49:11.425Z,11.4
2022-10-20T09:50:11.462Z,11.3
2022-10-20T09:51:14.709Z,11.3
2022-10-20T09:52:16.577Z,11.4
2022-10-20T09:53:16.614Z,11.4
2022-10-20T09:54:11.742Z,11.4
2022-10-20T09:55:11.886Z,11.4
2022-10-20T09:56:11.972Z,11.4
2022-10-20T09:57:12.080Z,11.4
2022-10-20T09:58:17.260Z,11.4
2022-10-20T09:59:12.202Z,11.4
2022-10-20T10:00:25.446Z,11.4
2022-10-20T10:01:12.351Z,11.4
2022-10-20T10:02:12.369Z,11.4
2022-10-20T10:03:12.411Z,11.3
2022-10-20T10:04:12.490Z,11.3
2022-10-20T10:05:12.520Z,11.3
2022-10-20T10:06:20.041Z,11.3
2022-10-20T10:07:12.668Z,11.3
2022-10-20T10:08:12.699Z,11.3
2022-10-20T10:09:12.839Z,11.4
2022-10-20T10:10:12.855Z,11.3
2022-10-20T10:11:12.882Z,11.3
2022-10-20T10:12:12.942Z,11.3
2022-10-20T10:13:12.964Z,11.3
2022-10-20T10:14:13.022Z,11.3
2022-10-20T10:15:13.100Z,11.3
2022-10-20T10:16:13.133Z,11.3
2022-10-20T10:17:13.214Z,11.2
2022-10-20T10:18:13.284Z,11.2
2022-10-20T10:19:16.389Z,11.3
2022-10-20T10:20:13.385Z,11.3
2022-10-20T10:21:13.417Z,11.3
2022-10-20T10:22:13.513Z,11.3
2022-10-20T10:23:13.547Z,11.3
2022-10-20T10:24:13.591Z,11.3
2022-10-20T10:25:13.653Z,11.3
2022-10-20T10:26:13.695Z,11.3
2022-10-20T10:27:13.807Z,11.3
2022-10-20T10:28:13.918Z,11.3
2022-10-20T10:29:13.960Z,11.3
2022-10-20T10:30:14.024Z,11.3
2022-10-20T10:31:14.058Z,11.3
2022-10-20T10:32:14.127Z,11.3
2022-10-20T10:33:14.183Z,11.3
2022-10-20T10:34:14.283Z,11.3
2022-10-20T10:35:14.338Z,11.3
2022-10-20T10:36:14.415Z,11.3
2022-10-20T10:37:14.434Z,11.3
2022-10-20T10:38:14.473Z,11.3
2022-10-20T10:39:14.511Z,11.3
2022-10-20T10:40:14.636Z,11.3
2022-10-20T10:41:14.652Z,11.3
2022-10-20T10:42:14.728Z,11.3
2022-10-20T10:43:14.812Z,11.3
2022-10-20T10:44:14.883Z,11.3
2022-10-20T10:45:15.458Z,11.3
2022-10-20T10:46:15.009Z,11.4
2022-10-20T10:47:14.960Z,11.3
2022-10-20T10:48:15.142Z,11.4
2022-10-20T10:49:15.123Z,11.4
2022-10-20T10:50:15.249Z,11.3
2022-10-20T10:51:20.234Z,11.3
2022-10-20T10:52:15.293Z,11.4
2022-10-20T10:53:15.310Z,11.4
2022-10-20T10:54:15.398Z,11.4
2022-10-20T10:55:25.820Z,11.4
2022-10-20T10:56:20.509Z,11.4
2022-10-20T10:57:15.580Z,11.4
2022-10-20T10:58:15.710Z,11.4
2022-10-20T10:59:15.672Z,11.4
2022-10-20T11:00:15.747Z,11.4
2022-10-20T11:01:15.840Z,11.4
2022-10-20T11:02:15.891Z,11.3
2022-10-20T11:03:15.927Z,11.3
2022-10-20T11:04:15.993Z,11.4
2022-10-20T11:06:16.189Z,11.3
2022-10-20T11:07:16.203Z,11.3
2022-10-20T11:08:16.293Z,11.3
2022-10-20T11:09:16.474Z,11.2
2022-10-20T11:10:16.397Z,11.2
2022-10-20T11:11:16.425Z,11.2
2022-10-20T11:12:16.532Z,11.3
2022-10-20T11:13:16.559Z,11.3
2022-10-20T11:14:16.691Z,11.2
2022-10-20T11:15:16.676Z,11.2
2022-10-20T11:16:16.691Z,11.2
2022-10-20T11:17:16.745Z,11.3
2022-10-20T11:18:16.832Z,11.3
2022-10-20T11:19:16.893Z,11.3
2022-10-20T11:20:16.942Z,11.4
2022-10-20T11:21:16.978Z,11.4
2022-10-20T11:22:17.074Z,11.4
2022-10-20T11:23:17.080Z,11.4
2022-10-20T11:24:17.154Z,11.4
2022-10-20T11:25:17.211Z,11.4
2022-10-20T11:26:17.242Z,11.5
2022-10-20T11:27:17.333Z,11.4
2022-10-20T11:28:17.368Z,11.4
2022-10-20T11:29:17.432Z,11.4
2022-10-20T11:30:17.506Z,11.4
2022-10-20T11:31:17.605Z,11.4
2022-10-20T11:32:17.605Z,11.4
2022-10-20T11:33:17.731Z,11.4
2022-10-20T11:34:17.748Z,11.4
2022-10-20T11:35:17.811Z,11.4
2022-10-20T11:36:17.832Z,11.4
2022-10-20T11:37:17.876Z,11.4
2022-10-20T11:38:17.942Z,11.4
2022-10-20T11:39:17.994Z,11.3
2022-10-20T11:40:18.063Z,11.4
2022-10-20T11:41:23.068Z,11.4
2022-10-20T11:42:18.183Z,11.4
2022-10-20T11:43:18.185Z,11.4
2022-10-20T11:44:18.229Z,11.4
2022-10-20T11:45:18.313Z,11.3
2022-10-20T11:46:18.302Z,11.3
2022-10-20T11:47:18.365Z,11.3
2022-10-20T11:48:18.513Z,11.3
2022-10-20T11:49:18.500Z,11.4
2022-10-20T11:50:18.579Z,11.3
2022-10-20T11:51:18.627Z,11.3
2022-10-20T11:52:18.668Z,11.3
2022-10-20T11:53:18.727Z,11.3
2022-10-20T11:54:18.843Z,11.3
2022-10-20T11:55:18.879Z,11.3
2022-10-20T11:56:18.936Z,11.3
2022-10-20T11:57:18.976Z,11.3
2022-10-20T11:58:19.029Z,11.3
2022-10-20T11:59:24.048Z,11.3
2022-10-20T12:01:24.643Z,11.3
2022-10-20T12:02:19.352Z,11.3
2022-10-20T12:03:19.275Z,11.3
2022-10-20T12:04:19.330Z,11.3
2022-10-20T12:05:19.413Z,11.3
2022-10-20T12:06:19.463Z,11.3
2022-10-20T12:07:19.551Z,11.3
2022-10-20T12:08:29.233Z,11.3
2022-10-20T12:09:19.742Z,11.3
2022-10-20T12:10:19.968Z,11.3
2022-10-20T12:11:19.765Z,11.3
2022-10-20T12:12:19.830Z,11.3
2022-10-20T12:13:19.871Z,11.3
2022-10-20T12:14:19.945Z,11.3
2022-10-20T12:15:20.005Z,11.3
2022-10-20T12:16:20.138Z,11.3
2022-10-20T12:17:20.073Z,11.3
2022-10-20T12:18:20.184Z,11.3
2022-10-20T12:19:20.222Z,11.3
2022-10-20T12:20:20.300Z,11.3
2022-10-20T12:21:20.316Z,11.3
2022-10-20T12:22:20.397Z,11.3
2022-10-20T12:23:20.474Z,11.3
2022-10-20T12:24:20.561Z,11.3
2022-10-20T12:25:20.626Z,11.3
2022-10-20T12:26:20.684Z,11.3
2022-10-20T12:27:20.739Z,11.3
2022-10-20T12:28:20.813Z,11.3
2022-10-20T12:29:20.871Z,11.3
2022-10-20T12:30:20.936Z,11.3
2022-10-20T12:31:20.966Z,11.3
2022-10-20T12:32:20.994Z,11.3
2022-10-20T12:33:21.074Z,11.4
2022-10-20T12:34:21.142Z,11.3
2022-10-20T12:35:21.188Z,11.4
2022-10-20T12:36:21.220Z,11.4
2022-10-20T12:37:21.288Z,11.4
2022-10-20T12:38:21.318Z,11.4
2022-10-20T12:39:21.422Z,11.4
2022-10-20T12:40:21.480Z,11.4
2022-10-20T12:41:21.598Z,11.4
2022-10-20T12:42:21.597Z,11.4
2022-10-20T12:43:26.603Z,11.4
2022-10-20T12:44:21.683Z,11.4
2022-10-20T12:45:21.992Z,11.4
2022-10-20T12:46:21.821Z,11.4
2022-10-20T12:47:21.815Z,11.4
2022-10-20T12:48:21.884Z,11.4
2022-10-20T12:49:21.965Z,11.4
2022-10-20T12:50:22.130Z,11.4
2022-10-20T12:51:22.123Z,11.4
2022-10-20T12:52:22.205Z,11.4
2022-10-20T12:53:22.451Z,11.4
2022-10-20T12:54:22.393Z,11.4
2022-10-20T12:55:22.322Z,11.4
2022-10-20T12:56:22.326Z,11.4
2022-10-20T12:57:22.397Z,11.5
2022-10-20T12:58:22.445Z,11.5
2022-10-20T12:59:22.488Z,11.6
2022-10-20T13:00:22.603Z,11.6
2022-10-20T13:01:22.741Z,11.6
2022-10-20T13:02:22.650Z,11.6
2022-10-20T13:03:26.025Z,11.6
2022-10-20T13:05:27.876Z,11.6
2022-10-20T13:05:27.969Z,11.6
2022-10-20T13:06:22.843Z,11.6
2022-10-20T13:07:22.885Z,11.6
2022-10-20T13:08:22.988Z,11.6
2022-10-20T13:09:23.045Z,11.7
2022-10-20T13:10:23.100Z,11.6
2022-10-20T13:11:23.259Z,11.6
2022-10-20T13:12:23.232Z,11.7
2022-10-20T13:13:23.337Z,11.7
2022-10-20T13:14:23.356Z,11.7
2022-10-20T13:15:23.398Z,11.7
2022-10-20T13:16:23.467Z,11.7
2022-10-20T13:17:23.540Z,11.7
2022-10-20T13:18:23.563Z,11.8
2022-10-20T13:19:23.604Z,11.8
2022-10-20T13:20:23.692Z,11.8
2022-10-20T13:21:23.745Z,11.8
2022-10-20T13:22:23.811Z,11.7
2022-10-20T13:23:28.882Z,11.7
2022-10-20T13:24:23.973Z,11.7
2022-10-20T13:25:23.980Z,11.8
2022-10-20T13:26:24.026Z,11.8
2022-10-20T13:27:24.105Z,11.8
2022-10-20T13:28:24.135Z,11.8
2022-10-20T13:29:24.211Z,11.8
2022-10-20T13:30:24.271Z,11.7